Davenport, Washington
Current Conditions -  °F | °C
As of 6:58 PM on Saturday 25 Oct 2014 (Local Time) from KSKA Reporting Station
Light Rain Light Rain  
Wind Chill: 58°   Ceiling: 8500
Heat Index: 58°   Visibility: 10mi
Dew Point: 44°   Wind: 13mph
Humidity: 59%   Direction: 220°SW
Pressure: 29.53"   Gusts: NA
Location:  47.65°N, 118.15°W
Report Text: KSKA 260158Z AUTO 22011KT 10SM -RA FEW038 SCT070 BKN085 BKN100 15/07 A2953 RMK AO2 PK WND 22032/05 RAE0118B0153 SLP003 P0000 T01450066
Loading
Personal Weather Stations






























Interactive Weather Map
Tropical Storm Tracking
New forecast layout! Learn more

10-Day Weather Forecast

Advertisements
Track Severe Weather on mobile